Time;durP1;ratioP1;P1;durP2;ratioP2;P2;SDS_P1;SDS_P2;PMS_P1;PMS_P2;Temp;Humidity;BMP_temperature;BMP_pressure;BME280_temperature;BME280_humidity;BME280_pressure;Samples;Min_cycle;Max_cycle;Signal;HPM_P1;HPM_P2
2023/04/21 00:01:07;;;;;;;7.85;5.90;;;;;;;;;;4991772;28;20054;-78
2023/04/21 00:03:37;;;;;;;11.38;5.30;;;;;;;;;;4997313;28;20042;-78
2023/04/21 00:06:05;;;;;;;11.13;5.53;;;;;;;;;;4991015;28;20046;-78
2023/04/21 00:08:31;;;;;;;7.72;5.15;;;;;;;;;;4992200;28;20449;-78
2023/04/21 00:10:57;;;;;;;8.55;5.03;;;;;;;;;;4990678;28;20508;-79
2023/04/21 00:13:23;;;;;;;6.97;4.90;;;;;;;;;;4992961;28;20026;-79
2023/04/21 00:15:50;;;;;;;8.90;5.30;;;;;;;;;;4991554;28;20058;-78
2023/04/21 00:18:19;;;;;;;9.43;4.40;;;;;;;;;;4992360;28;20122;-79
2023/04/21 00:20:45;;;;;;;8.32;4.88;;;;;;;;;;4991641;28;20500;-78
2023/04/21 00:23:12;;;;;;;6.18;4.30;;;;;;;;;;4991282;28;20046;-82
2023/04/21 00:25:38;;;;;;;8.82;4.80;;;;;;;;;;5008966;28;20034;-79
2023/04/21 00:28:04;;;;;;;13.70;5.88;;;;;;;;;;4992542;28;20053;-79
2023/04/21 00:30:30;;;;;;;9.93;5.50;;;;;;;;;;4992503;28;20040;-79
2023/04/21 00:32:56;;;;;;;12.80;6.05;;;;;;;;;;4991147;28;20029;-77
2023/04/21 00:35:22;;;;;;;12.85;5.68;;;;;;;;;;4991311;28;20092;-78
2023/04/21 00:37:49;;;;;;;13.40;7.00;;;;;;;;;;5007441;28;20116;-79
2023/04/21 00:40:15;;;;;;;13.90;6.70;;;;;;;;;;4990946;28;20041;-79
2023/04/21 00:42:41;;;;;;;15.13;6.28;;;;;;;;;;4992634;28;20030;-79
2023/04/21 00:45:09;;;;;;;9.70;6.60;;;;;;;;;;4972535;28;20061;-80
2023/04/21 00:47:35;;;;;;;8.50;6.60;;;;;;;;;;5007008;28;20822;-79
2023/04/21 00:50:03;;;;;;;11.68;6.55;;;;;;;;;;5023856;28;20042;-79
2023/04/21 00:52:29;;;;;;;11.43;7.47;;;;;;;;;;4991876;28;20042;-79
2023/04/21 00:54:56;;;;;;;10.90;6.68;;;;;;;;;;4993090;28;20045;-79
2023/04/21 00:57:22;;;;;;;9.93;5.85;;;;;;;;;;5028032;28;20022;-79
2023/04/21 00:59:48;;;;;;;9.02;5.95;;;;;;;;;;5012272;28;20037;-79
2023/04/21 01:02:18;;;;;;;9.63;6.43;;;;;;;;;;4971283;28;20481;-79
2023/04/21 01:04:44;;;;;;;16.30;7.82;;;;;;;;;;5002492;28;20121;-78
2023/04/21 01:07:10;;;;;;;16.55;6.85;;;;;;;;;;5004900;28;20480;-79
2023/04/21 01:09:36;;;;;;;10.63;6.15;;;;;;;;;;4988227;28;20055;-79
2023/04/21 01:12:08;;;;;;;12.00;6.93;;;;;;;;;;4989586;28;20515;-79
2023/04/21 01:14:35;;;;;;;9.88;5.60;;;;;;;;;;4989178;28;20037;-78
2023/04/21 01:17:05;;;;;;;8.75;6.20;;;;;;;;;;4997557;28;20018;-79
2023/04/21 01:19:40;;;;;;;8.15;5.82;;;;;;;;;;4989017;28;20420;-79
2023/04/21 01:22:11;;;;;;;8.35;5.43;;;;;;;;;;4990020;28;20049;-79
2023/04/21 01:24:42;;;;;;;11.70;5.32;;;;;;;;;;4979034;28;20477;-79
2023/04/21 01:27:12;;;;;;;9.75;6.00;;;;;;;;;;4987592;28;20569;-79
2023/04/21 01:29:40;;;;;;;10.98;6.05;;;;;;;;;;4989760;28;20037;-79
2023/04/21 01:32:11;;;;;;;8.07;5.95;;;;;;;;;;4987369;28;20030;-79
2023/04/21 01:34:39;;;;;;;7.28;5.50;;;;;;;;;;4986768;28;20030;-79
2023/04/21 01:37:12;;;;;;;8.77;6.15;;;;;;;;;;5006488;28;20121;-79
2023/04/21 01:39:42;;;;;;;7.88;5.65;;;;;;;;;;4988000;28;20026;-79
2023/04/21 01:42:09;;;;;;;7.65;5.38;;;;;;;;;;4986105;28;20112;-81
2023/04/21 01:44:36;;;;;;;8.00;4.78;;;;;;;;;;4997309;28;20022;-79
2023/04/21 01:47:02;;;;;;;8.02;5.70;;;;;;;;;;4985965;28;20034;-79
2023/04/21 01:49:28;;;;;;;7.32;5.28;;;;;;;;;;4999921;28;20050;-79
2023/04/21 01:51:55;;;;;;;10.95;5.18;;;;;;;;;;4980466;28;20038;-79
2023/04/21 01:54:23;;;;;;;10.38;5.65;;;;;;;;;;4990006;28;20058;-78
2023/04/21 01:56:49;;;;;;;8.23;5.43;;;;;;;;;;4985178;28;20108;-78
2023/04/21 01:59:16;;;;;;;7.68;6.00;;;;;;;;;;4986791;28;20041;-79
2023/04/21 02:01:42;;;;;;;11.32;6.72;;;;;;;;;;4987266;28;20026;-78
2023/04/21 02:04:07;;;;;;;8.30;5.40;;;;;;;;;;4986448;28;20025;-79
2023/04/21 02:06:34;;;;;;;9.25;6.57;;;;;;;;;;4984347;28;20399;-78
2023/04/21 02:09:00;;;;;;;9.32;6.22;;;;;;;;;;4989464;28;20041;-79
2023/04/21 02:11:29;;;;;;;6.93;4.80;;;;;;;;;;4989294;28;20029;-78
2023/04/21 02:13:55;;;;;;;11.27;5.15;;;;;;;;;;4984892;28;20043;-78
2023/04/21 02:16:25;;;;;;;6.78;3.75;;;;;;;;;;4992004;28;20125;-79
2023/04/21 02:18:52;;;;;;;7.97;3.72;;;;;;;;;;4991428;28;20066;-79
2023/04/21 02:21:20;;;;;;;4.22;3.40;;;;;;;;;;4975358;28;20054;-77
2023/04/21 02:23:47;;;;;;;7.97;4.05;;;;;;;;;;4993358;28;20030;-77
2023/04/21 02:26:14;;;;;;;7.97;3.58;;;;;;;;;;4991065;28;20025;-78
2023/04/21 02:28:41;;;;;;;6.15;3.72;;;;;;;;;;4991314;28;20117;-79
2023/04/21 02:31:07;;;;;;;7.78;4.00;;;;;;;;;;4987570;28;20076;-78
2023/04/21 02:33:33;;;;;;;10.60;4.00;;;;;;;;;;4991735;28;20030;-79
2023/04/21 02:35:59;;;;;;;10.68;3.78;;;;;;;;;;4994905;28;20022;-78
2023/04/21 02:38:25;;;;;;;6.82;4.03;;;;;;;;;;5009787;28;20034;-78
2023/04/21 02:40:51;;;;;;;9.80;3.90;;;;;;;;;;4993662;28;20046;-79
2023/04/21 02:43:18;;;;;;;9.25;3.90;;;;;;;;;;4993784;28;20038;-78
2023/04/21 02:45:44;;;;;;;7.20;3.40;;;;;;;;;;5010334;28;20133;-78
2023/04/21 02:48:14;;;;;;;5.60;3.78;;;;;;;;;;4982908;28;20039;-79
2023/04/21 02:50:41;;;;;;;9.20;3.75;;;;;;;;;;4991559;28;20417;-80
2023/04/21 02:53:07;;;;;;;13.32;3.88;;;;;;;;;;5013465;28;20037;-79
2023/04/21 02:55:33;;;;;;;6.85;3.22;;;;;;;;;;5014297;28;20022;-78
2023/04/21 02:58:01;;;;;;;7.40;3.55;;;;;;;;;;4997400;28;20195;-78
2023/04/21 03:00:27;;;;;;;5.50;3.45;;;;;;;;;;5018616;28;20113;-79
2023/04/21 03:02:52;;;;;;;7.57;3.42;;;;;;;;;;4993301;28;20064;-78
2023/04/21 03:05:18;;;;;;;6.32;3.55;;;;;;;;;;4977405;28;20026;-78
2023/04/21 03:07:45;;;;;;;9.88;5.03;;;;;;;;;;5009649;28;20045;-78
2023/04/21 03:10:11;;;;;;;13.07;4.10;;;;;;;;;;5014587;28;20025;-77
2023/04/21 03:12:37;;;;;;;7.03;4.15;;;;;;;;;;5014598;28;20038;-78
2023/04/21 03:15:03;;;;;;;5.43;3.80;;;;;;;;;;4984944;28;20039;-79
2023/04/21 03:17:29;;;;;;;6.30;3.63;;;;;;;;;;4993913;28;20038;-79
2023/04/21 03:19:57;;;;;;;5.97;3.88;;;;;;;;;;4991815;28;20169;-80
2023/04/21 03:22:23;;;;;;;9.32;4.72;;;;;;;;;;4992926;28;20034;-78
2023/04/21 03:24:49;;;;;;;10.13;3.90;;;;;;;;;;4993308;28;20022;-78
2023/04/21 03:27:15;;;;;;;7.63;3.80;;;;;;;;;;4993285;28;20042;-79
2023/04/21 03:29:43;;;;;;;9.82;3.78;;;;;;;;;;4991881;28;20200;-79
2023/04/21 03:32:09;;;;;;;6.53;3.42;;;;;;;;;;4992506;28;20038;-79
2023/04/21 03:34:35;;;;;;;6.07;2.97;;;;;;;;;;4984725;28;20121;-79
2023/04/21 03:37:05;;;;;;;6.30;3.22;;;;;;;;;;4990365;28;20041;-79
2023/04/21 03:39:31;;;;;;;14.80;3.95;;;;;;;;;;5008458;28;20061;-79
2023/04/21 03:41:58;;;;;;;5.68;3.25;;;;;;;;;;4989151;28;20056;-79
2023/04/21 03:44:26;;;;;;;7.97;3.35;;;;;;;;;;4987877;28;20041;-79
2023/04/21 03:46:56;;;;;;;6.82;3.28;;;;;;;;;;4987827;28;20109;-78
2023/04/21 03:49:23;;;;;;;11.18;3.15;;;;;;;;;;4989390;28;20564;-80
2023/04/21 03:51:49;;;;;;;5.13;3.25;;;;;;;;;;4992336;28;20121;-79
2023/04/21 03:54:15;;;;;;;9.60;3.72;;;;;;;;;;4983999;28;20057;-78
2023/04/21 03:56:41;;;;;;;12.30;3.65;;;;;;;;;;4993318;28;20080;-78
2023/04/21 03:59:06;;;;;;;6.13;3.40;;;;;;;;;;4989167;28;20159;-78
2023/04/21 04:01:35;;;;;;;9.52;3.63;;;;;;;;;;4988744;28;20084;-79
2023/04/21 04:04:01;;;;;;;14.45;4.82;;;;;;;;;;4981459;28;20046;-80
2023/04/21 04:06:27;;;;;;;13.30;4.63;;;;;;;;;;4989627;28;20025;-78
2023/04/21 04:08:53;;;;;;;8.60;3.78;;;;;;;;;;4986538;28;20064;-77
2023/04/21 04:11:20;;;;;;;13.63;4.15;;;;;;;;;;4988965;28;20495;-79
2023/04/21 04:13:46;;;;;;;9.25;3.28;;;;;;;;;;4991446;28;20073;-77
2023/04/21 04:16:11;;;;;;;10.45;4.55;;;;;;;;;;4990221;28;20022;-79
2023/04/21 04:18:37;;;;;;;12.98;4.00;;;;;;;;;;4984537;28;20031;-78
2023/04/21 04:21:06;;;;;;;12.68;3.95;;;;;;;;;;4978745;28;20031;-79
2023/04/21 04:23:34;;;;;;;8.07;3.30;;;;;;;;;;5004795;28;20467;-79
2023/04/21 04:26:00;;;;;;;9.02;3.28;;;;;;;;;;4989023;28;20048;-78
2023/04/21 04:28:29;;;;;;;8.90;4.15;;;;;;;;;;4992451;28;20037;-78
2023/04/21 04:30:55;;;;;;;6.32;2.90;;;;;;;;;;4993731;28;20674;-78
2023/04/21 04:33:23;;;;;;;8.63;3.10;;;;;;;;;;4993624;28;20053;-77
2023/04/21 04:35:48;;;;;;;5.03;3.00;;;;;;;;;;4993706;28;20484;-78
2023/04/21 04:38:15;;;;;;;6.80;3.15;;;;;;;;;;4993662;28;20036;-79
2023/04/21 04:40:42;;;;;;;6.63;2.83;;;;;;;;;;4993089;28;20041;-78
2023/04/21 04:43:09;;;;;;;9.13;3.03;;;;;;;;;;4989325;28;20039;-78
2023/04/21 04:45:36;;;;;;;7.10;3.22;;;;;;;;;;4990178;28;20049;-78
2023/04/21 04:48:05;;;;;;;10.80;3.85;;;;;;;;;;4993825;28;20053;-78
2023/04/21 04:50:31;;;;;;;6.43;3.35;;;;;;;;;;4989016;28;20125;-79
2023/04/21 04:52:56;;;;;;;7.03;3.50;;;;;;;;;;4984735;28;20816;-78
2023/04/21 04:55:24;;;;;;;11.07;3.40;;;;;;;;;;4984071;28;20036;-77
2023/04/21 04:57:50;;;;;;;10.93;3.90;;;;;;;;;;4990682;28;20050;-79
2023/04/21 05:00:16;;;;;;;8.43;3.80;;;;;;;;;;5008302;28;20026;-79
2023/04/21 05:02:42;;;;;;;7.97;3.70;;;;;;;;;;4991789;28;20049;-78
2023/04/21 05:05:08;;;;;;;12.55;4.20;;;;;;;;;;4988397;28;20023;-78
2023/04/21 05:07:35;;;;;;;7.72;4.28;;;;;;;;;;4988136;28;20041;-80
2023/04/21 05:10:03;;;;;;;16.27;5.32;;;;;;;;;;4992863;28;20032;-79
2023/04/21 05:12:31;;;;;;;14.80;5.07;;;;;;;;;;4988700;28;20401;-79
2023/04/21 05:14:57;;;;;;;8.85;4.10;;;;;;;;;;4991053;28;20937;-77
2023/04/21 05:17:27;;;;;;;12.48;4.40;;;;;;;;;;4983104;28;20062;-78
2023/04/21 05:19:53;;;;;;;8.35;4.07;;;;;;;;;;4992815;28;20041;-79
2023/04/21 05:22:19;;;;;;;9.23;3.90;;;;;;;;;;4987954;28;20106;-78
2023/04/21 05:24:44;;;;;;;7.43;3.47;;;;;;;;;;4987426;28;20125;-79
2023/04/21 05:27:10;;;;;;;8.10;4.05;;;;;;;;;;5007888;28;20018;-78
2023/04/21 05:29:36;;;;;;;6.25;4.28;;;;;;;;;;4991813;28;20531;-80
2023/04/21 05:32:03;;;;;;;8.65;4.20;;;;;;;;;;4991846;28;20491;-79
2023/04/21 05:34:30;;;;;;;10.00;4.80;;;;;;;;;;4992378;28;20132;-80
2023/04/21 05:36:57;;;;;;;8.70;4.40;;;;;;;;;;4991990;28;20057;-79
2023/04/21 05:39:23;;;;;;;12.38;4.40;;;;;;;;;;4989015;28;20508;-77
2023/04/21 05:41:48;;;;;;;7.50;4.20;;;;;;;;;;4988377;28;20054;-77
2023/04/21 05:44:17;;;;;;;10.75;4.55;;;;;;;;;;4990096;28;20124;-78
2023/04/21 05:46:43;;;;;;;10.80;4.45;;;;;;;;;;4983342;28;20469;-80
2023/04/21 05:49:09;;;;;;;8.57;4.75;;;;;;;;;;4991527;28;20037;-79
2023/04/21 05:51:35;;;;;;;10.10;5.60;;;;;;;;;;5006664;28;20030;-79
2023/04/21 05:54:01;;;;;;;11.43;4.80;;;;;;;;;;4989205;28;20042;-80
2023/04/21 05:56:28;;;;;;;10.30;5.40;;;;;;;;;;4985101;28;20023;-79
2023/04/21 05:58:56;;;;;;;12.43;6.28;;;;;;;;;;4991046;28;20089;-79
2023/04/21 06:01:23;;;;;;;7.78;4.78;;;;;;;;;;4992567;28;20472;-79
2023/04/21 06:03:51;;;;;;;13.32;6.18;;;;;;;;;;4991643;28;20096;-78
2023/04/21 06:06:17;;;;;;;10.15;4.53;;;;;;;;;;4989180;28;20102;-78
2023/04/21 06:08:42;;;;;;;6.25;4.72;;;;;;;;;;4988570;28;20046;-77
2023/04/21 06:11:08;;;;;;;11.23;5.90;;;;;;;;;;4985250;28;20047;-78
2023/04/21 06:13:34;;;;;;;8.13;5.40;;;;;;;;;;4983972;28;20393;-80
2023/04/21 06:16:01;;;;;;;11.00;5.15;;;;;;;;;;4986287;28;20031;-79
2023/04/21 06:18:28;;;;;;;12.60;5.95;;;;;;;;;;4984633;28;20476;-78
2023/04/21 06:20:56;;;;;;;11.43;5.93;;;;;;;;;;4981014;28;20099;-78
2023/04/21 06:23:22;;;;;;;10.63;6.00;;;;;;;;;;4989808;28;20034;-79
2023/04/21 06:26:03;;;;;;;10.77;5.93;;;;;;;;;;4984873;28;20165;-79
2023/04/21 06:28:30;;;;;;;7.60;5.32;;;;;;;;;;4987345;28;20054;-79
2023/04/21 06:30:56;;;;;;;7.43;5.85;;;;;;;;;;4983904;28;20026;-78
2023/04/21 06:33:21;;;;;;;15.25;7.10;;;;;;;;;;4986720;28;20042;-79
2023/04/21 06:35:53;;;;;;;15.05;6.20;;;;;;;;;;5004648;28;20030;-79
2023/04/21 06:38:19;;;;;;;12.30;6.15;;;;;;;;;;5011768;28;20062;-79
2023/04/21 06:40:45;;;;;;;11.57;6.20;;;;;;;;;;5011975;28;20037;-78
2023/04/21 06:43:13;;;;;;;9.90;6.30;;;;;;;;;;4988956;28;20040;-79
2023/04/21 06:45:41;;;;;;;11.07;6.35;;;;;;;;;;4987505;28;20035;-80
2023/04/21 06:48:07;;;;;;;14.43;7.43;;;;;;;;;;4989075;28;20041;-80
2023/04/21 06:50:33;;;;;;;13.10;6.35;;;;;;;;;;4994663;28;20022;-80
2023/04/21 06:52:58;;;;;;;12.00;5.88;;;;;;;;;;4988218;28;20158;-79
2023/04/21 06:55:25;;;;;;;12.05;6.78;;;;;;;;;;5002833;28;20115;-81
2023/04/21 06:57:51;;;;;;;10.68;6.88;;;;;;;;;;4987043;28;21015;-79
2023/04/21 07:00:19;;;;;;;10.75;7.22;;;;;;;;;;4990810;28;20029;-80
2023/04/21 07:02:45;;;;;;;12.75;7.63;;;;;;;;;;4991643;28;20069;-79
2023/04/21 07:05:11;;;;;;;14.88;7.45;;;;;;;;;;4995325;28;20069;-79
2023/04/21 07:07:41;;;;;;;11.02;6.80;;;;;;;;;;5011522;28;20041;-79
2023/04/21 07:10:08;;;;;;;10.77;7.13;;;;;;;;;;4995223;28;20057;-81
2023/04/21 07:12:35;;;;;;;12.20;7.45;;;;;;;;;;4996717;28;20496;-78
2023/04/21 07:15:02;;;;;;;11.02;7.40;;;;;;;;;;4997275;28;20069;-80
2023/04/21 07:17:28;;;;;;;13.00;7.93;;;;;;;;;;4997604;28;20046;-79
2023/04/21 07:19:54;;;;;;;12.13;7.53;;;;;;;;;;4995887;28;20058;-79
2023/04/21 07:22:21;;;;;;;10.02;7.32;;;;;;;;;;4996954;28;20046;-79
2023/04/21 07:24:48;;;;;;;12.57;8.10;;;;;;;;;;4998310;28;20034;-78
2023/04/21 07:27:14;;;;;;;14.98;8.60;;;;;;;;;;4995919;28;20084;-80
2023/04/21 07:29:40;;;;;;;13.80;8.15;;;;;;;;;;4995639;28;20042;-80
2023/04/21 07:32:07;;;;;;;13.50;8.27;;;;;;;;;;5004195;28;20469;-78
2023/04/21 07:34:33;;;;;;;16.75;8.30;;;;;;;;;;4990259;28;20433;-78
2023/04/21 07:37:00;;;;;;;14.43;8.65;;;;;;;;;;4988660;28;20036;-80
2023/04/21 07:39:28;;;;;;;13.57;7.70;;;;;;;;;;4996322;28;20436;-81
2023/04/21 07:41:54;;;;;;;17.10;8.20;;;;;;;;;;4996002;28;20046;-78
2023/04/21 07:44:20;;;;;;;10.48;7.20;;;;;;;;;;4994917;28;20484;-79
2023/04/21 07:46:48;;;;;;;14.63;8.27;;;;;;;;;;4995158;28;20041;-80
2023/04/21 07:49:15;;;;;;;14.40;8.18;;;;;;;;;;4995113;28;20484;-81
2023/04/21 07:51:41;;;;;;;11.38;7.70;;;;;;;;;;4995257;28;20088;-80
2023/04/21 07:54:07;;;;;;;11.23;7.15;;;;;;;;;;4995188;28;20026;-78
2023/04/21 07:56:33;;;;;;;8.65;6.53;;;;;;;;;;4994550;28;20039;-78
2023/04/21 07:58:59;;;;;;;12.45;6.95;;;;;;;;;;4994667;28;20118;-78
2023/04/21 08:01:25;;;;;;;11.93;6.38;;;;;;;;;;5010278;28;20089;-79
2023/04/21 08:03:51;;;;;;;12.68;6.90;;;;;;;;;;4996090;28;20072;-79
2023/04/21 08:06:18;;;;;;;10.38;7.13;;;;;;;;;;4996540;28;20531;-81
2023/04/21 08:08:45;;;;;;;13.18;7.60;;;;;;;;;;5011767;28;20041;-80
2023/04/21 08:11:12;;;;;;;11.05;7.28;;;;;;;;;;5001576;28;20030;-80
2023/04/21 08:13:40;;;;;;;13.32;6.57;;;;;;;;;;5004611;28;20100;-81
2023/04/21 08:16:06;;;;;;;9.10;5.90;;;;;;;;;;4998235;28;20042;-81
2023/04/21 08:18:34;;;;;;;14.70;7.50;;;;;;;;;;4994757;28;20030;-81
2023/04/21 08:21:01;;;;;;;9.63;7.43;;;;;;;;;;5013544;28;20054;-81
2023/04/21 08:23:29;;;;;;;18.13;7.72;;;;;;;;;;4996657;28;20053;-78
2023/04/21 08:25:56;;;;;;;11.80;6.72;;;;;;;;;;4993485;28;20095;-78
2023/04/21 08:28:23;;;;;;;9.20;6.53;;;;;;;;;;4992843;28;20022;-80
2023/04/21 08:30:49;;;;;;;11.68;6.95;;;;;;;;;;4993473;28;20088;-79
2023/04/21 08:33:15;;;;;;;11.57;6.28;;;;;;;;;;5009208;28;20022;-78
2023/04/21 08:35:41;;;;;;;8.55;6.15;;;;;;;;;;4992632;28;20046;-77
2023/04/21 08:38:07;;;;;;;8.10;5.50;;;;;;;;;;4992856;28;20018;-79
2023/04/21 08:40:36;;;;;;;13.27;5.60;;;;;;;;;;4992685;28;20049;-78
2023/04/21 08:43:07;;;;;;;8.98;4.82;;;;;;;;;;5009755;28;20033;-78
2023/04/21 08:45:35;;;;;;;8.50;5.00;;;;;;;;;;4992659;28;20030;-79
2023/04/21 08:48:03;;;;;;;5.95;4.13;;;;;;;;;;4992878;28;20048;-78
2023/04/21 08:50:33;;;;;;;7.63;5.13;;;;;;;;;;4994033;28;20540;-78
2023/04/21 08:52:59;;;;;;;7.80;4.22;;;;;;;;;;4994947;28;20062;-77
2023/04/21 08:55:31;;;;;;;5.47;4.10;;;;;;;;;;5009337;28;20120;-78
2023/04/21 08:57:57;;;;;;;15.05;4.57;;;;;;;;;;4994142;28;20030;-78
2023/04/21 09:00:23;;;;;;;6.43;3.88;;;;;;;;;;4993749;28;20031;-78
2023/04/21 09:03:00;;;;;;;7.25;4.45;;;;;;;;;;5001433;28;20459;-80
2023/04/21 09:05:29;;;;;;;7.20;3.90;;;;;;;;;;4981416;28;20088;-79
2023/04/21 09:08:17;;;;;;;6.57;4.03;;;;;;;;;;4977888;28;20122;-79
2023/04/21 09:10:48;;;;;;;4.78;3.63;;;;;;;;;;5006094;28;20045;-79
2023/04/21 09:13:16;;;;;;;5.32;3.97;;;;;;;;;;4987416;28;20045;-79
2023/04/21 09:15:53;;;;;;;8.07;4.30;;;;;;;;;;4987074;28;20033;-78
2023/04/21 09:18:26;;;;;;;11.63;4.38;;;;;;;;;;4992453;28;20038;-81
2023/04/21 09:21:06;;;;;;;4.93;3.83;;;;;;;;;;4991037;28;20034;-82
2023/04/21 09:23:50;;;;;;;6.80;4.85;;;;;;;;;;4994095;28;20514;-80
2023/04/21 09:26:21;;;;;;;6.20;4.03;;;;;;;;;;4979670;28;20049;-81
2023/04/21 09:28:50;;;;;;;6.35;4.50;;;;;;;;;;4980499;28;20054;-80
2023/04/21 09:31:27;;;;;;;5.15;4.00;;;;;;;;;;4983033;28;20030;-81
2023/04/21 09:34:21;;;;;;;6.65;3.90;;;;;;;;;;4992202;28;20046;-82
2023/04/21 09:37:04;;;;;;;5.22;3.95;;;;;;;;;;5007319;28;20063;-84
2023/04/21 09:39:30;;;;;;;5.38;3.58;;;;;;;;;;4984607;28;20082;-83
2023/04/21 09:42:06;;;;;;;6.85;3.53;;;;;;;;;;4993876;28;20015;-82
2023/04/21 09:44:39;;;;;;;4.82;3.33;;;;;;;;;;4987648;28;20077;-82
2023/04/21 09:47:09;;;;;;;7.32;3.55;;;;;;;;;;4980533;28;20042;-80
2023/04/21 09:49:39;;;;;;;5.60;3.65;;;;;;;;;;4986556;28;20469;-81
2023/04/21 09:52:06;;;;;;;4.95;3.20;;;;;;;;;;4986866;28;20014;-83
2023/04/21 09:54:38;;;;;;;4.63;3.30;;;;;;;;;;4994620;28;20040;-81
2023/04/21 09:57:06;;;;;;;5.10;3.58;;;;;;;;;;5010088;28;20030;-82
2023/04/21 09:59:35;;;;;;;9.07;3.47;;;;;;;;;;4992966;28;20037;-82
2023/04/21 10:02:04;;;;;;;6.60;3.25;;;;;;;;;;5009533;28;20461;-81
2023/04/21 10:04:34;;;;;;;3.97;3.47;;;;;;;;;;4991835;28;20033;-83
2023/04/21 10:07:03;;;;;;;5.50;3.30;;;;;;;;;;4996791;28;20038;-80
2023/04/21 10:09:44;;;;;;;6.80;3.40;;;;;;;;;;4990172;28;20034;-80
2023/04/21 10:12:12;;;;;;;4.78;3.58;;;;;;;;;;4993088;28;20125;-80
2023/04/21 10:14:37;;;;;;;4.97;3.10;;;;;;;;;;4996953;28;20117;-79
2023/04/21 10:17:05;;;;;;;5.25;3.28;;;;;;;;;;4993608;28;20042;-79
2023/04/21 10:19:38;;;;;;;5.03;3.30;;;;;;;;;;4992755;28;20146;-81
2023/04/21 10:22:08;;;;;;;7.57;3.20;;;;;;;;;;4991930;28;20051;-81
2023/04/21 10:24:39;;;;;;;8.27;3.60;;;;;;;;;;4997159;28;20030;-81
2023/04/21 10:27:11;;;;;;;8.07;3.58;;;;;;;;;;4997021;28;20100;-79
2023/04/21 10:29:37;;;;;;;5.72;3.10;;;;;;;;;;4994088;28;20515;-85
2023/04/21 10:32:03;;;;;;;5.88;2.97;;;;;;;;;;5010914;28;20041;-84
2023/04/21 10:34:36;;;;;;;9.32;3.42;;;;;;;;;;4997706;28;20038;-86
2023/04/21 10:37:11;;;;;;;5.55;3.00;;;;;;;;;;4997579;28;20038;-84
2023/04/21 10:39:55;;;;;;;7.60;3.15;;;;;;;;;;4998915;28;20034;-85
2023/04/21 10:42:27;;;;;;;4.05;3.03;;;;;;;;;;4988763;28;20114;-84
2023/04/21 10:45:03;;;;;;;3.75;2.95;;;;;;;;;;5002577;28;20100;-84
2023/04/21 10:47:42;;;;;;;3.88;2.80;;;;;;;;;;4995369;28;20069;-79
2023/04/21 10:50:29;;;;;;;8.93;3.30;;;;;;;;;;4995064;28;20046;-81
2023/04/21 10:53:10;;;;;;;4.78;3.25;;;;;;;;;;4996595;28;20044;-80
2023/04/21 10:55:37;;;;;;;3.85;2.60;;;;;;;;;;4994846;28;20500;-79
2023/04/21 10:58:10;;;;;;;9.60;3.10;;;;;;;;;;5009661;28;20030;-82
2023/04/21 11:00:38;;;;;;;5.97;3.50;;;;;;;;;;4981563;28;20042;-78
2023/04/21 11:03:05;;;;;;;4.45;2.40;;;;;;;;;;4994925;28;20520;-83
2023/04/21 11:05:41;;;;;;;5.45;2.63;;;;;;;;;;4995345;28;20046;-84
2023/04/21 11:08:14;;;;;;;7.70;4.72;;;;;;;;;;5000084;28;20049;-83
2023/04/21 11:10:45;;;;;;;11.52;7.57;;;;;;;;;;5000077;28;20034;-83
2023/04/21 11:13:11;;;;;;;5.22;3.50;;;;;;;;;;4998032;28;20357;-82
2023/04/21 11:15:39;;;;;;;4.18;3.08;;;;;;;;;;5016824;28;20053;-82
2023/04/21 11:18:08;;;;;;;6.43;3.13;;;;;;;;;;4984170;28;20018;-82
2023/04/21 11:20:41;;;;;;;6.15;3.28;;;;;;;;;;4998569;28;20038;-84
2023/04/21 11:23:07;;;;;;;3.95;3.00;;;;;;;;;;5012835;28;20041;-82
2023/04/21 11:25:33;;;;;;;6.53;3.08;;;;;;;;;;4998287;28;20037;-84
2023/04/21 11:28:03;;;;;;;3.80;2.80;;;;;;;;;;4997399;28;20046;-83
2023/04/21 11:30:33;;;;;;;7.35;5.13;;;;;;;;;;4999848;28;20057;-82
2023/04/21 11:32:59;;;;;;;5.63;3.20;;;;;;;;;;5012340;28;20038;-83
2023/04/21 11:35:26;;;;;;;5.72;3.20;;;;;;;;;;4999429;28;20380;-83
2023/04/21 11:37:54;;;;;;;4.88;2.90;;;;;;;;;;5018056;28;20481;-83
2023/04/21 11:40:22;;;;;;;4.10;2.80;;;;;;;;;;5002064;28;20077;-85
2023/04/21 11:42:55;;;;;;;3.80;2.75;;;;;;;;;;5004116;28;20092;-84
2023/04/21 11:45:27;;;;;;;4.25;2.78;;;;;;;;;;5019059;28;20066;-84
2023/04/21 11:48:12;;;;;;;4.57;3.22;;;;;;;;;;5016199;28;20042;-83
2023/04/21 11:50:38;;;;;;;5.70;3.90;;;;;;;;;;5001172;28;20085;-83
2023/04/21 11:53:06;;;;;;;5.05;3.40;;;;;;;;;;5002493;28;20042;-84
2023/04/21 11:55:33;;;;;;;8.30;4.28;;;;;;;;;;5000357;28;20092;-83
2023/04/21 11:58:00;;;;;;;5.80;4.47;;;;;;;;;;4999203;28;20026;-83
2023/04/21 12:00:30;;;;;;;8.15;3.28;;;;;;;;;;5001144;28;20018;-84
2023/04/21 12:02:57;;;;;;;5.50;2.83;;;;;;;;;;5003443;28;20049;-83
2023/04/21 12:05:34;;;;;;;6.70;2.92;;;;;;;;;;4999327;28;20097;-85
2023/04/21 12:08:05;;;;;;;7.10;5.72;;;;;;;;;;4988389;28;20038;-79
2023/04/21 12:10:31;;;;;;;3.13;2.33;;;;;;;;;;4983077;28;20074;-80
2023/04/21 12:12:57;;;;;;;7.65;5.45;;;;;;;;;;4992147;28;20026;-78
2023/04/21 12:15:23;;;;;;;4.15;2.97;;;;;;;;;;4995120;28;20030;-77
2023/04/21 12:17:54;;;;;;;26.90;17.25;;;;;;;;;;5010273;28;20430;-83
2023/04/21 12:20:25;;;;;;;14.00;7.68;;;;;;;;;;4992288;28;20354;-78
2023/04/21 12:22:52;;;;;;;4.28;3.20;;;;;;;;;;4992585;28;20042;-80
2023/04/21 12:25:18;;;;;;;5.20;3.42;;;;;;;;;;4997252;28;20033;-84
2023/04/21 12:27:56;;;;;;;5.32;2.88;;;;;;;;;;4997661;28;20080;-84
2023/04/21 12:30:22;;;;;;;4.70;3.10;;;;;;;;;;5000162;28;20042;-86
2023/04/21 12:32:54;;;;;;;4.75;2.85;;;;;;;;;;4997687;28;20044;-84
2023/04/21 12:35:21;;;;;;;3.85;2.70;;;;;;;;;;4996424;28;20040;-82
2023/04/21 12:37:47;;;;;;;4.28;2.55;;;;;;;;;;5011125;28;20089;-78
2023/04/21 12:40:14;;;;;;;3.45;2.83;;;;;;;;;;4995924;28;20201;-83
2023/04/21 12:42:40;;;;;;;5.63;4.63;;;;;;;;;;4994671;28;20069;-79
2023/04/21 12:45:07;;;;;;;5.65;2.72;;;;;;;;;;4991293;28;20039;-80
2023/04/21 12:47:34;;;;;;;5.93;3.08;;;;;;;;;;4986750;28;20084;-80
2023/04/21 12:50:01;;;;;;;3.20;2.58;;;;;;;;;;4993490;28;20042;-79
2023/04/21 12:52:27;;;;;;;6.35;2.65;;;;;;;;;;4994856;28;20072;-81
2023/04/21 12:54:54;;;;;;;5.80;2.88;;;;;;;;;;4994480;28;20035;-80
2023/04/21 12:57:21;;;;;;;4.32;3.00;;;;;;;;;;4994945;28;20031;-80
2023/04/21 12:59:48;;;;;;;5.60;3.15;;;;;;;;;;4994609;28;20034;-81
2023/04/21 13:02:15;;;;;;;5.93;2.53;;;;;;;;;;4998012;28;20117;-83
2023/04/21 13:04:41;;;;;;;3.20;2.70;;;;;;;;;;4995127;28;20145;-79
2023/04/21 13:07:08;;;;;;;4.00;3.00;;;;;;;;;;4995077;28;20094;-79
2023/04/21 13:09:34;;;;;;;3.80;2.53;;;;;;;;;;4995575;28;20061;-77
2023/04/21 13:12:00;;;;;;;4.75;2.72;;;;;;;;;;4995312;28;20098;-79
2023/04/21 13:14:26;;;;;;;6.07;2.92;;;;;;;;;;5013350;28;20057;-80
2023/04/21 13:16:56;;;;;;;4.50;2.97;;;;;;;;;;4994428;28;20042;-83
2023/04/21 13:19:22;;;;;;;4.28;2.80;;;;;;;;;;4993965;28;20053;-83
2023/04/21 13:21:49;;;;;;;3.30;2.33;;;;;;;;;;4994742;28;20122;-82
2023/04/21 13:24:15;;;;;;;6.25;2.75;;;;;;;;;;5010632;28;20038;-85
2023/04/21 13:26:41;;;;;;;4.45;2.70;;;;;;;;;;4993205;28;20118;-83
2023/04/21 13:29:06;;;;;;;6.85;3.13;;;;;;;;;;4997429;28;20034;-85
2023/04/21 13:31:34;;;;;;;4.45;2.55;;;;;;;;;;4997418;28;20392;-83
2023/04/21 13:34:02;;;;;;;4.57;2.58;;;;;;;;;;4998395;28;20107;-82
2023/04/21 13:36:33;;;;;;;4.03;2.72;;;;;;;;;;4998583;28;20399;-85
2023/04/21 13:39:00;;;;;;;4.07;2.50;;;;;;;;;;4997626;28;20065;-84
2023/04/21 13:41:27;;;;;;;5.75;2.80;;;;;;;;;;5001784;28;20034;-82
2023/04/21 13:43:53;;;;;;;6.95;2.83;;;;;;;;;;5008767;28;20134;-77
2023/04/21 13:46:26;;;;;;;5.65;2.58;;;;;;;;;;4993656;28;20053;-80
2023/04/21 13:48:53;;;;;;;7.85;2.63;;;;;;;;;;4996439;28;20373;-79
2023/04/21 13:51:19;;;;;;;5.53;3.25;;;;;;;;;;4994202;28;20812;-78
2023/04/21 13:53:45;;;;;;;4.40;3.05;;;;;;;;;;4992799;28;20073;-79
2023/04/21 13:56:12;;;;;;;4.13;2.88;;;;;;;;;;4992211;28;20693;-80
2023/04/21 13:58:41;;;;;;;3.63;2.70;;;;;;;;;;4990266;28;20048;-79
2023/04/21 14:01:07;;;;;;;5.22;2.83;;;;;;;;;;5007262;28;20605;-79
2023/04/21 14:03:35;;;;;;;8.30;3.05;;;;;;;;;;4990952;28;20034;-80
2023/04/21 14:06:00;;;;;;;5.22;3.22;;;;;;;;;;4992420;28;20032;-80
2023/04/21 14:08:28;;;;;;;7.13;3.70;;;;;;;;;;4992387;28;20547;-80
2023/04/21 14:10:56;;;;;;;4.13;3.35;;;;;;;;;;4992972;28;20022;-81
2023/04/21 14:13:31;;;;;;;7.80;3.80;;;;;;;;;;5007377;28;20061;-79
2023/04/21 14:15:59;;;;;;;3.70;2.92;;;;;;;;;;5007651;28;20507;-81
2023/04/21 14:18:27;;;;;;;5.20;3.65;;;;;;;;;;4993064;28;20473;-81
2023/04/21 14:20:55;;;;;;;4.00;3.38;;;;;;;;;;4992807;28;20125;-80
2023/04/21 14:23:21;;;;;;;5.65;2.97;;;;;;;;;;4993239;28;20057;-80
2023/04/21 14:25:47;;;;;;;4.88;3.60;;;;;;;;;;4994293;28;20043;-80
2023/04/21 14:28:13;;;;;;;5.50;3.05;;;;;;;;;;4993058;28;20381;-80
2023/04/21 14:30:41;;;;;;;4.90;3.25;;;;;;;;;;4979334;28;20043;-79
2023/04/21 14:33:08;;;;;;;5.47;3.30;;;;;;;;;;4992987;28;20377;-77
2023/04/21 14:35:36;;;;;;;5.90;3.55;;;;;;;;;;4992930;28;20492;-78
2023/04/21 14:38:02;;;;;;;7.22;3.40;;;;;;;;;;4992305;28;20065;-80
2023/04/21 14:40:29;;;;;;;5.55;3.40;;;;;;;;;;4992156;28;20484;-80
2023/04/21 14:42:55;;;;;;;6.50;3.55;;;;;;;;;;4987953;28;20023;-81